Time;durP1;ratioP1;P1;durP2;ratioP2;P2;SDS_P1;SDS_P2;PMS_P1;PMS_P2;Temp;Humidity;BMP_temperature;BMP_pressure;BME280_temperature;BME280_humidity;BME280_pressure;Samples;Min_cycle;Max_cycle;Signal;HPM_P1;HPM_P2
2021/07/31 00:01:08;;;;;;;2.20;1.30;;;23.10;62.30;;;;;;4954333;28;20039;-62
2021/07/31 00:03:34;;;;;;;5.57;1.58;;;23.00;62.10;;;;;;4968141;28;20073;-62
2021/07/31 00:05:59;;;;;;;4.95;1.13;;;23.10;62.10;;;;;;4956542;28;20039;-62
2021/07/31 00:08:25;;;;;;;6.47;1.65;;;23.10;62.00;;;;;;4963928;28;20039;-62
2021/07/31 00:10:50;;;;;;;3.58;1.10;;;23.10;61.90;;;;;;4968054;28;20106;-63
2021/07/31 00:13:16;;;;;;;2.25;1.30;;;23.00;61.80;;;;;;4968284;28;20506;-63
2021/07/31 00:15:42;;;;;;;2.35;1.23;;;23.00;61.60;;;;;;4958304;28;20042;-62
2021/07/31 00:18:07;;;;;;;5.97;1.55;;;23.10;61.70;;;;;;4961305;28;20038;-62
2021/07/31 00:20:33;;;;;;;3.08;1.25;;;23.00;61.50;;;;;;4968159;28;20058;-62
2021/07/31 00:22:58;;;;;;;4.72;1.35;;;23.10;61.60;;;;;;4968106;28;20031;-62
2021/07/31 00:25:24;;;;;;;3.28;1.20;;;23.10;61.70;;;;;;4968351;28;20112;-61
2021/07/31 00:27:49;;;;;;;5.38;1.40;;;23.00;61.50;;;;;;4968142;28;20026;-62
2021/07/31 00:30:15;;;;;;;5.35;1.20;;;23.10;61.40;;;;;;4968323;28;20406;-62
2021/07/31 00:32:40;;;;;;;3.60;1.20;;;23.10;61.40;;;;;;4966263;28;20038;-63
2021/07/31 00:35:06;;;;;;;4.07;1.38;;;23.00;61.20;;;;;;4953653;28;20504;-62
2021/07/31 00:37:32;;;;;;;2.75;1.45;;;23.00;61.30;;;;;;4967591;28;20034;-62
2021/07/31 00:39:57;;;;;;;2.70;1.13;;;23.00;61.20;;;;;;4967802;28;20054;-63
2021/07/31 00:42:23;;;;;;;4.97;1.40;;;23.00;61.30;;;;;;4967832;28;20038;-62
2021/07/31 00:44:48;;;;;;;5.68;1.83;;;23.00;61.20;;;;;;4961863;28;20565;-61
2021/07/31 00:47:14;;;;;;;4.22;1.10;;;23.10;61.20;;;;;;4954305;28;20022;-62
2021/07/31 00:49:40;;;;;;;4.82;1.45;;;23.00;61.20;;;;;;4975070;28;20023;-62
2021/07/31 00:52:05;;;;;;;6.88;1.50;;;23.00;61.10;;;;;;4969997;28;20082;-62
2021/07/31 00:54:31;;;;;;;3.13;1.52;;;23.00;60.90;;;;;;4979228;28;20038;-63
2021/07/31 00:56:57;;;;;;;5.40;1.55;;;23.00;60.90;;;;;;4966826;28;20022;-63
2021/07/31 00:59:23;;;;;;;4.43;1.55;;;23.00;60.70;;;;;;4967691;28;20042;-62
2021/07/31 01:01:48;;;;;;;3.65;1.33;;;23.00;60.60;;;;;;4967982;28;20114;-63
2021/07/31 01:04:14;;;;;;;2.28;1.30;;;23.00;60.70;;;;;;4967342;28;20178;-63
2021/07/31 01:06:40;;;;;;;11.00;1.80;;;23.00;60.70;;;;;;4966214;28;20055;-61
2021/07/31 01:09:05;;;;;;;6.90;1.63;;;23.00;60.70;;;;;;4963500;28;20115;-62
2021/07/31 01:11:31;;;;;;;7.55;1.92;;;23.00;60.50;;;;;;4959843;28;20031;-63
2021/07/31 01:13:57;;;;;;;2.65;1.00;;;23.00;60.60;;;;;;4958423;28;20039;-63
2021/07/31 01:16:22;;;;;;;4.68;1.70;;;23.00;60.60;;;;;;4950456;28;20580;-62
2021/07/31 01:18:48;;;;;;;3.22;1.40;;;23.00;60.50;;;;;;4965052;28;20050;-62
2021/07/31 01:21:32;;;;;;;5.85;1.48;;;23.00;60.50;;;;;;4960374;28;20027;-62
2021/07/31 01:23:57;;;;;;;2.63;1.40;;;23.00;60.30;;;;;;4966767;28;20117;-62
2021/07/31 01:26:23;;;;;;;3.35;1.27;;;23.00;60.40;;;;;;4965971;28;20569;-63
2021/07/31 01:28:49;;;;;;;3.10;1.40;;;23.00;60.30;;;;;;4954729;28;20039;-63
2021/07/31 01:31:14;;;;;;;2.85;1.60;;;23.00;60.30;;;;;;4970326;28;20023;-63
2021/07/31 01:33:40;;;;;;;3.95;1.30;;;23.00;60.30;;;;;;4970706;28;20486;-62
2021/07/31 01:36:06;;;;;;;5.90;1.50;;;23.00;60.20;;;;;;4971048;28;20034;-62
2021/07/31 01:38:31;;;;;;;4.35;1.10;;;23.00;60.20;;;;;;4970200;28;20030;-63
2021/07/31 01:40:57;;;;;;;5.07;1.38;;;23.00;60.20;;;;;;4963413;28;20066;-63
2021/07/31 01:43:22;;;;;;;2.80;1.60;;;23.00;60.10;;;;;;4970073;28;20536;-62
2021/07/31 01:45:48;;;;;;;6.13;1.70;;;23.00;60.10;;;;;;4964909;28;20089;-62
2021/07/31 01:48:13;;;;;;;7.25;1.42;;;23.00;60.00;;;;;;4956884;28;20028;-62
2021/07/31 01:50:40;;;;;;;4.40;1.60;;;23.00;59.90;;;;;;4956255;28;20027;-62
2021/07/31 01:53:05;;;;;;;4.10;1.60;;;23.00;59.90;;;;;;4970778;28;20625;-63
2021/07/31 01:55:31;;;;;;;4.80;1.55;;;23.00;60.00;;;;;;4976958;28;20111;-62
2021/07/31 01:57:56;;;;;;;4.00;1.42;;;23.00;60.00;;;;;;4962478;28;20035;-62
2021/07/31 02:00:22;;;;;;;4.03;1.33;;;23.00;60.00;;;;;;4970299;28;20059;-61
2021/07/31 02:02:48;;;;;;;4.43;1.45;;;23.00;60.40;;;;;;4954182;28;20074;-63
2021/07/31 02:05:13;;;;;;;3.40;1.42;;;23.00;59.90;;;;;;4964938;28;20160;-62
2021/07/31 02:07:39;;;;;;;4.10;1.50;;;23.00;59.90;;;;;;4960172;28;20486;-62
2021/07/31 02:10:05;;;;;;;4.10;1.70;;;23.00;59.90;;;;;;4970565;28;20469;-62
2021/07/31 02:12:30;;;;;;;5.57;1.40;;;23.00;59.90;;;;;;4970483;28;20479;-61
2021/07/31 02:14:56;;;;;;;4.85;1.73;;;23.00;59.90;;;;;;4970330;28;20073;-63
2021/07/31 02:17:21;;;;;;;4.22;1.50;;;23.00;59.80;;;;;;4961567;28;20035;-62
2021/07/31 02:19:47;;;;;;;5.38;1.50;;;23.00;59.90;;;;;;4954426;28;20046;-62
2021/07/31 02:22:12;;;;;;;3.63;1.45;;;23.00;59.90;;;;;;4964457;28;20434;-62
2021/07/31 02:24:38;;;;;;;3.90;1.35;;;23.00;59.80;;;;;;4968859;28;20034;-62
2021/07/31 02:27:03;;;;;;;5.00;1.52;;;23.00;59.80;;;;;;4955024;28;20034;-62
2021/07/31 02:29:29;;;;;;;6.40;1.77;;;23.00;59.70;;;;;;4961271;28;20082;-62
2021/07/31 02:31:54;;;;;;;5.55;1.60;;;23.00;59.70;;;;;;4961843;28;20094;-61
2021/07/31 02:34:20;;;;;;;4.45;1.80;;;23.00;59.70;;;;;;4969960;28;20094;-63
2021/07/31 02:36:45;;;;;;;4.35;1.48;;;23.00;59.60;;;;;;4969513;28;20109;-62
2021/07/31 02:39:11;;;;;;;5.22;1.70;;;23.00;59.70;;;;;;4964292;28;20451;-62
2021/07/31 02:41:36;;;;;;;4.22;1.42;;;23.00;59.50;;;;;;4984648;23;20820;-60
2021/07/31 02:44:02;;;;;;;2.03;1.38;;;23.00;59.60;;;;;;4988696;28;20033;-61
2021/07/31 02:46:27;;;;;;;4.65;1.40;;;23.00;59.50;;;;;;4981153;28;20382;-61
2021/07/31 02:48:53;;;;;;;5.05;2.20;;;23.00;59.50;;;;;;4985620;28;20378;-61
2021/07/31 02:51:19;;;;;;;4.40;1.90;;;23.00;59.40;;;;;;4976099;28;20023;-61
2021/07/31 02:53:44;;;;;;;5.85;1.75;;;23.00;59.40;;;;;;4989239;28;20464;-61
2021/07/31 02:56:10;;;;;;;5.63;1.80;;;22.90;59.30;;;;;;4988736;28;20046;-61
2021/07/31 02:58:35;;;;;;;4.90;1.60;;;23.00;59.40;;;;;;4988847;28;20089;-61
2021/07/31 03:01:10;;;;;;;2.85;1.48;;;23.00;59.30;;;;;;4988968;28;20117;-60
2021/07/31 03:03:36;;;;;;;4.22;1.38;;;23.00;59.30;;;;;;4988997;28;20481;-61
2021/07/31 03:06:01;;;;;;;4.38;1.50;;;23.00;59.20;;;;;;4988287;28;20045;-61
2021/07/31 03:08:28;;;;;;;4.70;1.40;;;23.00;59.30;;;;;;4976447;28;20031;-61
2021/07/31 03:10:57;;;;;;;9.30;1.85;;;23.00;59.50;;;;;;4988698;28;20030;-61
2021/07/31 03:13:23;;;;;;;4.88;1.45;;;23.00;59.40;;;;;;4988592;28;20069;-61
2021/07/31 03:15:49;;;;;;;3.67;1.40;;;23.00;59.40;;;;;;4988291;28;20139;-61
2021/07/31 03:18:14;;;;;;;4.50;1.58;;;23.00;59.40;;;;;;4988342;28;20037;-61
2021/07/31 03:20:46;;;;;;;4.55;1.40;;;23.00;59.50;;;;;;4988168;28;20863;-61
2021/07/31 03:23:16;;;;;;;4.10;1.70;;;23.00;59.50;;;;;;4982425;28;20045;-61
2021/07/31 03:25:42;;;;;;;3.97;1.85;;;23.00;59.50;;;;;;4982392;28;20520;-61
2021/07/31 03:28:08;;;;;;;2.67;1.73;;;23.00;59.50;;;;;;4988169;28;20066;-61
2021/07/31 03:30:33;;;;;;;4.68;1.55;;;23.00;59.60;;;;;;4988296;28;20033;-61
2021/07/31 03:32:59;;;;;;;3.38;1.60;;;23.00;59.60;;;;;;4986596;28;20621;-61
2021/07/31 03:35:24;;;;;;;5.43;1.63;;;23.00;59.60;;;;;;4988100;28;20104;-61
2021/07/31 03:37:50;;;;;;;4.45;2.05;;;23.00;59.60;;;;;;4987282;28;20603;-61
2021/07/31 03:40:15;;;;;;;4.43;1.55;;;23.00;59.60;;;;;;4973894;28;20051;-61
2021/07/31 03:42:41;;;;;;;5.35;1.73;;;23.00;59.60;;;;;;4985527;28;20037;-61
2021/07/31 03:45:07;;;;;;;7.30;1.65;;;23.00;59.60;;;;;;4988422;28;20485;-61
2021/07/31 03:47:32;;;;;;;5.22;1.63;;;23.00;59.60;;;;;;4988087;28;20040;-61
2021/07/31 03:49:59;;;;;;;4.55;1.52;;;23.00;59.60;;;;;;4987914;28;20042;-61
2021/07/31 03:52:26;;;;;;;5.07;1.52;;;23.00;59.60;;;;;;4985679;28;20803;-61
2021/07/31 03:54:52;;;;;;;6.35;1.77;;;23.00;59.70;;;;;;4987877;28;20038;-61
2021/07/31 03:57:17;;;;;;;5.63;1.85;;;22.90;59.30;;;;;;4987791;28;20026;-58
2021/07/31 03:59:43;;;;;;;7.20;2.10;;;23.00;59.10;;;;;;4987614;28;20058;-59
2021/07/31 04:02:08;;;;;;;5.13;2.08;;;22.90;58.80;;;;;;4987211;28;20033;-58
2021/07/31 04:04:34;;;;;;;7.35;2.83;;;22.90;58.80;;;;;;4986659;28;20030;-58
2021/07/31 04:07:00;;;;;;;6.03;1.92;;;22.90;58.70;;;;;;4972141;28;20033;-58
2021/07/31 04:09:25;;;;;;;9.27;1.80;;;22.90;58.70;;;;;;4987418;28;20026;-58
2021/07/31 04:11:51;;;;;;;9.65;1.80;;;22.90;58.60;;;;;;4987396;28;20089;-59
2021/07/31 04:14:16;;;;;;;6.38;1.70;;;22.90;58.50;;;;;;4987828;28;20030;-58
2021/07/31 04:16:42;;;;;;;6.28;1.85;;;22.90;58.90;;;;;;4981337;28;20053;-58
2021/07/31 04:19:07;;;;;;;3.33;1.50;;;22.90;58.50;;;;;;4968506;28;20693;-58
2021/07/31 04:21:33;;;;;;;5.05;1.90;;;22.90;58.50;;;;;;4983041;28;20517;-58
2021/07/31 04:23:58;;;;;;;3.40;1.55;;;22.90;58.40;;;;;;4987844;28;20073;-58
2021/07/31 04:26:24;;;;;;;7.00;2.00;;;22.90;58.50;;;;;;4985487;28;20137;-58
2021/07/31 04:28:49;;;;;;;6.53;1.90;;;22.90;58.60;;;;;;4968041;28;20027;-61
2021/07/31 04:31:15;;;;;;;7.57;1.70;;;22.90;58.70;;;;;;4980895;28;20030;-58
2021/07/31 04:33:41;;;;;;;5.15;2.05;;;22.90;58.90;;;;;;4987853;28;21064;-58
2021/07/31 04:36:07;;;;;;;3.53;2.10;;;22.90;58.90;;;;;;4979154;28;20023;-58
2021/07/31 04:38:32;;;;;;;5.97;2.22;;;22.90;59.00;;;;;;4977772;28;20034;-58
2021/07/31 04:40:58;;;;;;;8.25;1.90;;;22.80;58.90;;;;;;4986383;28;20093;-58
2021/07/31 04:43:23;;;;;;;3.03;1.95;;;22.80;58.80;;;;;;4980862;28;20597;-58
2021/07/31 04:45:49;;;;;;;5.72;1.70;;;22.80;58.80;;;;;;4968164;28;20035;-58
2021/07/31 04:48:15;;;;;;;8.27;1.95;;;22.80;58.80;;;;;;4970720;28;20022;-58
2021/07/31 04:50:40;;;;;;;5.28;1.95;;;22.80;58.80;;;;;;4987357;28;20122;-58
2021/07/31 04:53:06;;;;;;;6.20;2.03;;;22.80;58.80;;;;;;4985281;28;20050;-58
2021/07/31 04:55:31;;;;;;;3.78;1.60;;;22.90;58.80;;;;;;4981681;28;20996;-58
2021/07/31 04:57:57;;;;;;;4.45;1.55;;;22.80;58.80;;;;;;4986045;28;20493;-58
2021/07/31 05:00:22;;;;;;;3.67;1.52;;;22.80;58.70;;;;;;4987544;28;20157;-59
2021/07/31 05:02:48;;;;;;;5.05;1.80;;;22.80;58.70;;;;;;4977538;28;20041;-58
2021/07/31 05:05:13;;;;;;;8.65;1.70;;;22.80;58.70;;;;;;4969501;28;20067;-58
2021/07/31 05:07:39;;;;;;;6.80;2.17;;;22.80;58.70;;;;;;4971810;28;20046;-58
2021/07/31 05:10:05;;;;;;;4.38;1.85;;;22.80;58.70;;;;;;4988550;28;20038;-59
2021/07/31 05:12:30;;;;;;;5.90;2.10;;;22.80;58.70;;;;;;4991267;28;20061;-58
2021/07/31 05:14:56;;;;;;;3.10;1.67;;;22.80;58.70;;;;;;4990156;28;20022;-58
2021/07/31 05:17:21;;;;;;;5.97;2.03;;;22.80;58.70;;;;;;4986501;28;20490;-59
2021/07/31 05:19:47;;;;;;;3.03;1.88;;;22.90;58.70;;;;;;4974146;28;20056;-58
2021/07/31 05:22:16;;;;;;;7.13;2.22;;;22.80;58.60;;;;;;4982714;28;20033;-59
2021/07/31 05:24:42;;;;;;;4.05;1.60;;;22.80;58.60;;;;;;4988792;28;20034;-59
2021/07/31 05:27:07;;;;;;;6.68;1.83;;;22.80;58.60;;;;;;4987762;28;20052;-59
2021/07/31 05:29:33;;;;;;;4.55;2.00;;;22.80;58.60;;;;;;4989214;28;20023;-59
2021/07/31 05:31:59;;;;;;;2.28;1.80;;;22.80;58.70;;;;;;4990174;28;20109;-59
2021/07/31 05:34:24;;;;;;;5.95;2.15;;;22.80;58.70;;;;;;4989507;28;20035;-59
2021/07/31 05:36:50;;;;;;;7.20;1.77;;;22.80;58.50;;;;;;4990324;28;20088;-59
2021/07/31 05:39:15;;;;;;;6.10;1.90;;;22.80;58.50;;;;;;4989475;28;20505;-59
2021/07/31 05:41:41;;;;;;;3.05;1.60;;;22.80;58.50;;;;;;4981735;28;20054;-59
2021/07/31 05:44:06;;;;;;;5.72;2.03;;;22.80;58.50;;;;;;4990139;28;20066;-59
2021/07/31 05:46:32;;;;;;;4.22;2.05;;;22.80;58.50;;;;;;4989947;28;20114;-59
2021/07/31 05:48:57;;;;;;;5.40;1.60;;;22.80;58.50;;;;;;4989977;28;20093;-59
2021/07/31 05:51:23;;;;;;;7.07;1.70;;;22.80;58.50;;;;;;4989847;28;20038;-59
2021/07/31 05:53:48;;;;;;;5.45;2.10;;;22.80;58.50;;;;;;4990000;28;20466;-59
2021/07/31 05:56:15;;;;;;;4.25;1.80;;;22.80;58.50;;;;;;4989830;28;20045;-59
2021/07/31 05:58:40;;;;;;;6.20;1.85;;;22.80;58.50;;;;;;4989648;28;20038;-59
2021/07/31 06:01:09;;;;;;;3.95;1.73;;;22.80;58.50;;;;;;4989753;28;20397;-59
2021/07/31 06:03:35;;;;;;;5.05;1.65;;;22.70;58.50;;;;;;4987959;28;20117;-59
2021/07/31 06:06:00;;;;;;;3.88;2.00;;;22.80;58.50;;;;;;4984006;28;20248;-59
2021/07/31 06:08:26;;;;;;;5.93;1.75;;;22.80;59.00;;;;;;4989634;28;20393;-59
2021/07/31 06:11:01;;;;;;;3.22;1.80;;;22.80;58.60;;;;;;4989716;28;20041;-59
2021/07/31 06:13:27;;;;;;;6.15;2.10;;;22.80;58.60;;;;;;4989681;28;20046;-59
2021/07/31 06:15:52;;;;;;;5.35;1.95;;;22.80;58.70;;;;;;4985161;28;20035;-59
2021/07/31 06:18:18;;;;;;;3.42;2.00;;;22.80;58.70;;;;;;4998074;28;20501;-59
2021/07/31 06:20:43;;;;;;;4.72;1.70;;;22.70;58.70;;;;;;4989585;28;20042;-59
2021/07/31 06:23:08;;;;;;;6.75;2.40;;;22.80;58.70;;;;;;4978333;28;20038;-59
2021/07/31 06:25:34;;;;;;;3.92;2.17;;;22.80;58.70;;;;;;4989749;28;20058;-59
2021/07/31 06:27:59;;;;;;;7.57;2.10;;;22.80;58.70;;;;;;4989004;28;20120;-59
2021/07/31 06:30:25;;;;;;;5.63;1.90;;;22.80;58.80;;;;;;4989169;28;20555;-59
2021/07/31 06:32:50;;;;;;;5.47;1.83;;;22.80;58.80;;;;;;4989036;28;20038;-59
2021/07/31 06:35:16;;;;;;;7.15;1.98;;;22.80;58.80;;;;;;4989422;28;20049;-59
2021/07/31 06:37:42;;;;;;;3.65;1.70;;;22.80;58.80;;;;;;4988803;28;20058;-59
2021/07/31 06:40:08;;;;;;;5.55;2.25;;;22.80;58.90;;;;;;4997344;28;20046;-59
2021/07/31 06:42:34;;;;;;;5.68;1.65;;;22.80;59.40;;;;;;4989160;28;20038;-59
2021/07/31 06:44:59;;;;;;;6.35;2.40;;;22.80;59.40;;;;;;4989195;28;20018;-59
2021/07/31 06:47:25;;;;;;;5.93;2.08;;;22.80;59.30;;;;;;4972235;28;20093;-59
2021/07/31 06:49:50;;;;;;;7.05;1.98;;;22.70;59.10;;;;;;4988554;28;20045;-59
2021/07/31 06:52:16;;;;;;;4.30;1.90;;;22.70;59.00;;;;;;4986607;28;20029;-59
2021/07/31 06:54:41;;;;;;;4.03;1.95;;;22.70;58.80;;;;;;4975410;28;20636;-59
2021/07/31 06:57:10;;;;;;;5.53;1.90;;;22.70;58.80;;;;;;4987195;28;20053;-59
2021/07/31 06:59:36;;;;;;;4.32;1.88;;;22.70;58.90;;;;;;4984895;28;20045;-59
2021/07/31 07:02:02;;;;;;;5.95;2.10;;;22.70;58.70;;;;;;4984393;28;20038;-59
2021/07/31 07:04:27;;;;;;;4.60;2.08;;;22.70;58.60;;;;;;4987341;28;20341;-59
2021/07/31 07:06:53;;;;;;;4.03;1.98;;;22.70;58.80;;;;;;4986648;28;20037;-59
2021/07/31 07:09:18;;;;;;;6.18;1.95;;;22.60;58.70;;;;;;4973551;28;20079;-59
2021/07/31 07:11:44;;;;;;;7.10;2.08;;;22.60;58.70;;;;;;4984311;28;20026;-60
2021/07/31 07:14:09;;;;;;;5.50;1.90;;;22.60;58.60;;;;;;4987145;28;20419;-59
2021/07/31 07:16:35;;;;;;;5.68;1.85;;;22.60;58.60;;;;;;4984293;28;20038;-59
2021/07/31 07:19:01;;;;;;;5.38;1.90;;;22.60;58.70;;;;;;4984234;28;20038;-59
2021/07/31 07:21:26;;;;;;;4.03;1.73;;;22.60;58.70;;;;;;4986674;28;20109;-59
2021/07/31 07:23:52;;;;;;;6.32;1.80;;;22.60;58.80;;;;;;4986554;28;20069;-59
2021/07/31 07:26:17;;;;;;;7.57;1.88;;;22.60;58.80;;;;;;4987580;28;20767;-59
2021/07/31 07:28:43;;;;;;;4.50;1.67;;;22.60;58.80;;;;;;4986696;28;20042;-59
2021/07/31 07:31:12;;;;;;;6.97;2.08;;;22.60;58.90;;;;;;4974263;28;20031;-59
2021/07/31 07:33:38;;;;;;;11.23;2.72;;;22.60;58.90;;;;;;4986864;28;20030;-59
2021/07/31 07:36:14;;;;;;;8.43;2.45;;;22.60;59.20;;;;;;4988112;28;20042;-59
2021/07/31 07:38:40;;;;;;;8.65;3.00;;;22.70;59.60;;;;;;4978779;28;20142;-59
2021/07/31 07:41:09;;;;;;;4.65;2.30;;;22.70;59.60;;;;;;4986993;28;20153;-59
2021/07/31 07:43:35;;;;;;;11.85;3.95;;;22.70;59.60;;;;;;4988049;28;20066;-59
2021/07/31 07:46:01;;;;;;;9.30;2.97;;;22.70;59.60;;;;;;4988013;28;20064;-59
2021/07/31 07:48:26;;;;;;;6.45;2.50;;;22.70;59.70;;;;;;4977504;28;20515;-63
2021/07/31 07:50:52;;;;;;;7.25;2.45;;;22.70;59.60;;;;;;4986515;28;20081;-60
2021/07/31 07:53:17;;;;;;;6.57;2.40;;;22.70;59.60;;;;;;4987221;28;20026;-59
2021/07/31 07:55:43;;;;;;;5.70;2.03;;;22.80;59.60;;;;;;4986418;28;20434;-59
2021/07/31 07:58:09;;;;;;;4.63;1.85;;;22.80;59.60;;;;;;4985761;28;20096;-60
2021/07/31 08:00:35;;;;;;;9.98;2.90;;;22.80;59.50;;;;;;4986179;28;20035;-60
2021/07/31 08:03:00;;;;;;;5.07;2.17;;;22.80;59.60;;;;;;4986749;28;20206;-60
2021/07/31 08:05:26;;;;;;;6.90;1.92;;;22.80;59.40;;;;;;4987420;28;20493;-60
2021/07/31 08:07:51;;;;;;;7.18;2.05;;;22.80;59.40;;;;;;4986813;28;20053;-60
2021/07/31 08:10:17;;;;;;;6.15;2.03;;;22.80;59.40;;;;;;4985595;28;20112;-61
2021/07/31 08:12:43;;;;;;;3.22;1.85;;;22.80;59.40;;;;;;4990050;28;20026;-60
2021/07/31 08:15:09;;;;;;;7.30;2.55;;;22.80;59.30;;;;;;4982367;28;20112;-60
2021/07/31 08:17:34;;;;;;;6.40;2.25;;;22.90;59.40;;;;;;4986317;28;20041;-61
2021/07/31 08:20:00;;;;;;;7.97;2.60;;;22.90;59.40;;;;;;4980489;28;20043;-60
2021/07/31 08:22:26;;;;;;;7.40;2.22;;;22.90;59.30;;;;;;4986724;28;20035;-61
2021/07/31 08:24:52;;;;;;;7.28;2.35;;;22.90;59.30;;;;;;4986981;28;20088;-60
2021/07/31 08:27:17;;;;;;;6.07;2.33;;;22.90;59.30;;;;;;4985782;28;20381;-61
2021/07/31 08:29:43;;;;;;;6.20;2.13;;;22.90;59.40;;;;;;4987451;28;20087;-60
2021/07/31 08:32:08;;;;;;;8.88;2.30;;;22.90;59.40;;;;;;4983786;28;20389;-60
2021/07/31 08:34:34;;;;;;;8.77;2.67;;;23.00;59.50;;;;;;4987675;28;20034;-61
2021/07/31 08:37:03;;;;;;;16.77;2.92;;;22.90;59.50;;;;;;4986742;28;20513;-61
2021/07/31 08:39:28;;;;;;;12.85;2.92;;;22.90;59.90;;;;;;4988650;28;20485;-60
2021/07/31 08:41:54;;;;;;;10.10;2.75;;;22.90;59.50;;;;;;4999286;23;20070;-60
2021/07/31 08:44:20;;;;;;;10.93;2.50;;;22.90;59.50;;;;;;4973702;28;20741;-60
2021/07/31 08:46:45;;;;;;;12.60;3.05;;;22.90;59.50;;;;;;4971394;28;20037;-60
2021/07/31 08:49:14;;;;;;;5.60;2.35;;;23.00;59.40;;;;;;4970567;28;20027;-59
2021/07/31 08:51:40;;;;;;;5.60;2.60;;;23.00;59.50;;;;;;4977601;28;20604;-60
2021/07/31 08:54:05;;;;;;;8.90;2.50;;;23.00;59.40;;;;;;4985508;28;20234;-60
2021/07/31 08:56:31;;;;;;;7.53;2.63;;;23.00;59.40;;;;;;4971070;28;20042;-60
2021/07/31 08:58:59;;;;;;;6.30;2.60;;;22.90;59.20;;;;;;4970097;28;20035;-60
2021/07/31 09:01:24;;;;;;;5.97;2.50;;;23.00;59.30;;;;;;4977888;28;20139;-60
2021/07/31 09:03:51;;;;;;;7.30;2.95;;;23.00;59.70;;;;;;4971299;28;20517;-60
2021/07/31 09:06:30;;;;;;;7.13;2.40;;;23.00;59.30;;;;;;4970898;28;20101;-60
2021/07/31 09:08:56;;;;;;;6.45;2.35;;;23.00;59.20;;;;;;4970522;28;20039;-60
2021/07/31 09:11:22;;;;;;;4.00;1.92;;;23.00;59.40;;;;;;4970898;28;20039;-60
2021/07/31 09:13:47;;;;;;;7.65;2.28;;;23.00;59.40;;;;;;4971479;28;20449;-60
2021/07/31 09:16:13;;;;;;;12.13;2.65;;;23.00;59.50;;;;;;4970550;28;20039;-60
2021/07/31 09:18:44;;;;;;;10.00;2.42;;;23.00;59.40;;;;;;4972101;28;20058;-60
2021/07/31 09:21:12;;;;;;;9.93;2.38;;;23.00;58.90;;;;;;4971780;28;20506;-61
2021/07/31 09:23:45;;;;;;;9.23;2.55;;;23.00;58.80;;;;;;4970371;28;20035;-62
2021/07/31 09:26:15;;;;;;;4.70;1.90;;;23.00;58.70;;;;;;4970554;28;20065;-62
2021/07/31 09:28:42;;;;;;;5.97;1.80;;;23.00;58.70;;;;;;4971048;28;20027;-62
2021/07/31 09:31:17;;;;;;;7.10;2.35;;;23.00;58.20;;;;;;4970305;28;20034;-62
2021/07/31 09:33:48;;;;;;;8.25;2.20;;;23.00;58.10;;;;;;4971562;28;20034;-62
2021/07/31 09:36:14;;;;;;;7.22;2.13;;;22.90;58.20;;;;;;4977816;28;20049;-62
2021/07/31 09:38:41;;;;;;;4.38;1.80;;;22.90;58.30;;;;;;4968974;28;20494;-61
2021/07/31 09:41:36;;;;;;;6.35;2.20;;;22.90;58.00;;;;;;4969167;28;20482;-61
2021/07/31 09:44:15;;;;;;;5.82;2.42;;;22.90;58.30;;;;;;4956159;28;20035;-61
2021/07/31 09:46:45;;;;;;;10.63;2.17;;;22.90;58.40;;;;;;4977455;28;20030;-62
2021/07/31 09:49:21;;;;;;;4.53;1.77;;;22.80;58.30;;;;;;4978003;28;20098;-62
2021/07/31 09:51:48;;;;;;;8.10;2.00;;;22.80;58.30;;;;;;4969462;28;20406;-62
2021/07/31 09:54:15;;;;;;;21.15;4.00;;;22.80;58.50;;;;;;4969320;28;20422;-62
2021/07/31 09:56:59;;;;;;;17.70;3.13;;;22.80;58.60;;;;;;4977134;28;20030;-62
2021/07/31 09:59:24;;;;;;;12.07;2.38;;;22.80;58.50;;;;;;4969874;28;20058;-63
2021/07/31 10:02:03;;;;;;;9.15;2.25;;;22.80;57.90;;;;;;4969222;28;20035;-62
2021/07/31 10:04:31;;;;;;;6.93;2.00;;;22.80;57.80;;;;;;4968180;28;20115;-61
2021/07/31 10:06:58;;;;;;;8.27;2.75;;;22.80;57.90;;;;;;4970642;28;20058;-62
2021/07/31 10:09:23;;;;;;;12.30;2.70;;;22.80;58.20;;;;;;4968774;28;20401;-61
2021/07/31 10:11:49;;;;;;;8.45;2.22;;;22.80;58.30;;;;;;4974987;28;20041;-62
2021/07/31 10:14:14;;;;;;;10.10;2.17;;;22.80;58.40;;;;;;4969569;28;20027;-62
2021/07/31 10:16:46;;;;;;;7.40;2.25;;;22.80;58.20;;;;;;4970690;28;20038;-62
2021/07/31 10:19:12;;;;;;;7.55;2.25;;;22.80;58.40;;;;;;4968191;28;20498;-61
2021/07/31 10:21:48;;;;;;;6.85;1.90;;;22.80;58.50;;;;;;4969210;28;20073;-62
2021/07/31 10:24:13;;;;;;;7.10;1.90;;;22.80;58.50;;;;;;4985768;28;20448;-62
2021/07/31 10:26:39;;;;;;;3.80;1.60;;;22.90;58.50;;;;;;4978214;28;20026;-62
2021/07/31 10:29:32;;;;;;;7.32;2.40;;;22.90;58.50;;;;;;4967709;28;20026;-62
2021/07/31 10:32:32;;;;;;;9.10;2.10;;;22.90;58.10;;;;;;4969704;28;20034;-62
2021/07/31 10:35:05;;;;;;;4.70;1.88;;;22.90;57.80;;;;;;4951279;28;20043;-62
2021/07/31 10:37:37;;;;;;;5.28;1.85;;;23.00;58.00;;;;;;4969529;28;20069;-62
2021/07/31 10:40:10;;;;;;;3.38;1.80;;;23.00;58.10;;;;;;4970894;28;20161;-62
2021/07/31 10:42:55;;;;;;;6.18;1.92;;;23.10;58.30;;;;;;4970841;28;20038;-62
2021/07/31 10:45:22;;;;;;;5.15;2.08;;;23.10;58.20;;;;;;4970021;28;20027;-62
2021/07/31 10:47:48;;;;;;;6.20;1.60;;;23.20;58.10;;;;;;4973267;28;20027;-61
2021/07/31 10:50:25;;;;;;;6.43;1.90;;;23.20;57.40;;;;;;4973027;28;20081;-62
2021/07/31 10:53:10;;;;;;;7.07;1.70;;;23.20;57.30;;;;;;4979306;28;20038;-61
2021/07/31 10:55:36;;;;;;;8.02;1.95;;;23.30;56.80;;;;;;4952660;28;20111;-61
